sensor_id;sensor_type;location;lat;lon;timestamp;P1;durP1;ratioP1;P2;durP2;ratioP2
14060;SDS011;7105;43.616;1.434;2023-06-10T00:02:10;3.67;;;1.90;;
14060;SDS011;7105;43.616;1.434;2023-06-10T00:04:35;5.00;;;1.90;;
14060;SDS011;7105;43.616;1.434;2023-06-10T00:07:02;6.87;;;2.47;;
14060;SDS011;7105;43.616;1.434;2023-06-10T00:09:33;6.87;;;1.87;;
14060;SDS011;7105;43.616;1.434;2023-06-10T00:12:05;5.80;;;2.23;;
14060;SDS011;7105;43.616;1.434;2023-06-10T00:14:33;5.53;;;2.10;;
14060;SDS011;7105;43.616;1.434;2023-06-10T00:17:00;4.40;;;1.77;;
14060;SDS011;7105;43.616;1.434;2023-06-10T00:19:26;4.83;;;1.87;;
14060;SDS011;7105;43.616;1.434;2023-06-10T00:21:55;8.43;;;2.47;;
14060;SDS011;7105;43.616;1.434;2023-06-10T00:24:21;7.97;;;2.27;;
14060;SDS011;7105;43.616;1.434;2023-06-10T00:26:47;6.30;;;2.40;;
14060;SDS011;7105;43.616;1.434;2023-06-10T00:29:13;4.37;;;1.57;;
14060;SDS011;7105;43.616;1.434;2023-06-10T00:31:40;6.23;;;1.63;;
14060;SDS011;7105;43.616;1.434;2023-06-10T00:34:08;3.10;;;1.60;;
14060;SDS011;7105;43.616;1.434;2023-06-10T00:36:34;6.07;;;2.03;;
14060;SDS011;7105;43.616;1.434;2023-06-10T00:39:00;8.67;;;1.70;;
14060;SDS011;7105;43.616;1.434;2023-06-10T00:41:26;8.20;;;1.87;;
14060;SDS011;7105;43.616;1.434;2023-06-10T00:43:52;5.63;;;1.77;;
14060;SDS011;7105;43.616;1.434;2023-06-10T00:46:18;5.23;;;1.80;;
14060;SDS011;7105;43.616;1.434;2023-06-10T00:48:45;4.63;;;1.60;;
14060;SDS011;7105;43.616;1.434;2023-06-10T00:51:11;2.93;;;1.43;;
14060;SDS011;7105;43.616;1.434;2023-06-10T00:53:39;4.00;;;1.47;;
14060;SDS011;7105;43.616;1.434;2023-06-10T00:56:06;6.30;;;2.00;;
14060;SDS011;7105;43.616;1.434;2023-06-10T00:58:32;5.67;;;1.67;;
14060;SDS011;7105;43.616;1.434;2023-06-10T01:01:00;2.63;;;1.53;;
14060;SDS011;7105;43.616;1.434;2023-06-10T01:03:25;8.10;;;2.00;;
14060;SDS011;7105;43.616;1.434;2023-06-10T01:05:53;5.23;;;1.57;;
14060;SDS011;7105;43.616;1.434;2023-06-10T01:11:13;5.10;;;1.83;;
14060;SDS011;7105;43.616;1.434;2023-06-10T01:13:47;4.47;;;1.83;;
14060;SDS011;7105;43.616;1.434;2023-06-10T01:16:19;3.93;;;1.70;;
14060;SDS011;7105;43.616;1.434;2023-06-10T01:18:45;3.37;;;1.70;;
14060;SDS011;7105;43.616;1.434;2023-06-10T01:21:20;6.63;;;1.93;;
14060;SDS011;7105;43.616;1.434;2023-06-10T01:23:49;3.77;;;1.50;;
14060;SDS011;7105;43.616;1.434;2023-06-10T01:26:16;4.10;;;1.77;;
14060;SDS011;7105;43.616;1.434;2023-06-10T01:28:45;5.43;;;1.70;;
14060;SDS011;7105;43.616;1.434;2023-06-10T01:31:35;5.63;;;1.90;;
14060;SDS011;7105;43.616;1.434;2023-06-10T01:34:13;5.63;;;2.30;;
14060;SDS011;7105;43.616;1.434;2023-06-10T01:36:41;5.97;;;1.87;;
14060;SDS011;7105;43.616;1.434;2023-06-10T01:39:13;4.67;;;1.70;;
14060;SDS011;7105;43.616;1.434;2023-06-10T01:41:42;7.33;;;1.97;;
14060;SDS011;7105;43.616;1.434;2023-06-10T01:44:08;3.70;;;1.50;;
14060;SDS011;7105;43.616;1.434;2023-06-10T01:46:34;2.57;;;1.60;;
14060;SDS011;7105;43.616;1.434;2023-06-10T01:49:00;5.53;;;2.00;;
14060;SDS011;7105;43.616;1.434;2023-06-10T01:51:26;7.30;;;1.90;;
14060;SDS011;7105;43.616;1.434;2023-06-10T01:53:52;6.03;;;1.57;;
14060;SDS011;7105;43.616;1.434;2023-06-10T01:56:17;4.63;;;1.87;;
14060;SDS011;7105;43.616;1.434;2023-06-10T01:58:45;5.00;;;2.00;;
14060;SDS011;7105;43.616;1.434;2023-06-10T02:01:11;4.37;;;1.60;;
14060;SDS011;7105;43.616;1.434;2023-06-10T02:03:37;4.30;;;1.50;;
14060;SDS011;7105;43.616;1.434;2023-06-10T02:06:03;3.07;;;1.67;;
14060;SDS011;7105;43.616;1.434;2023-06-10T02:08:29;6.63;;;2.07;;
14060;SDS011;7105;43.616;1.434;2023-06-10T02:10:54;5.67;;;2.10;;
14060;SDS011;7105;43.616;1.434;2023-06-10T02:13:20;4.03;;;1.70;;
14060;SDS011;7105;43.616;1.434;2023-06-10T02:15:46;3.53;;;1.83;;
14060;SDS011;7105;43.616;1.434;2023-06-10T02:18:11;4.03;;;1.73;;
14060;SDS011;7105;43.616;1.434;2023-06-10T02:20:37;3.50;;;1.87;;
14060;SDS011;7105;43.616;1.434;2023-06-10T02:23:03;3.67;;;1.93;;
14060;SDS011;7105;43.616;1.434;2023-06-10T02:25:29;5.60;;;2.10;;
14060;SDS011;7105;43.616;1.434;2023-06-10T02:27:55;4.27;;;2.03;;
14060;SDS011;7105;43.616;1.434;2023-06-10T02:30:21;5.30;;;2.07;;
14060;SDS011;7105;43.616;1.434;2023-06-10T02:32:46;9.23;;;2.10;;
14060;SDS011;7105;43.616;1.434;2023-06-10T02:35:12;1.50;;;1.40;;
14060;SDS011;7105;43.616;1.434;2023-06-10T02:37:39;2.97;;;1.97;;
14060;SDS011;7105;43.616;1.434;2023-06-10T02:40:05;6.23;;;1.70;;
14060;SDS011;7105;43.616;1.434;2023-06-10T02:42:32;5.10;;;1.90;;
14060;SDS011;7105;43.616;1.434;2023-06-10T02:44:57;4.73;;;1.70;;
14060;SDS011;7105;43.616;1.434;2023-06-10T02:47:23;6.37;;;1.80;;
14060;SDS011;7105;43.616;1.434;2023-06-10T02:49:52;5.30;;;2.30;;
14060;SDS011;7105;43.616;1.434;2023-06-10T02:52:18;7.20;;;2.20;;
14060;SDS011;7105;43.616;1.434;2023-06-10T02:54:43;6.87;;;2.40;;
14060;SDS011;7105;43.616;1.434;2023-06-10T02:57:10;4.87;;;2.20;;
14060;SDS011;7105;43.616;1.434;2023-06-10T02:59:36;5.53;;;1.90;;
14060;SDS011;7105;43.616;1.434;2023-06-10T03:02:02;6.40;;;2.20;;
14060;SDS011;7105;43.616;1.434;2023-06-10T03:04:27;3.33;;;2.20;;
14060;SDS011;7105;43.616;1.434;2023-06-10T03:06:54;6.63;;;2.00;;
14060;SDS011;7105;43.616;1.434;2023-06-10T03:09:20;4.17;;;2.10;;
14060;SDS011;7105;43.616;1.434;2023-06-10T03:11:46;4.57;;;1.97;;
14060;SDS011;7105;43.616;1.434;2023-06-10T03:14:11;4.90;;;1.90;;
14060;SDS011;7105;43.616;1.434;2023-06-10T03:16:37;7.47;;;2.23;;
14060;SDS011;7105;43.616;1.434;2023-06-10T03:19:06;5.47;;;2.00;;
14060;SDS011;7105;43.616;1.434;2023-06-10T03:21:33;5.53;;;2.30;;
14060;SDS011;7105;43.616;1.434;2023-06-10T03:24:02;4.37;;;2.20;;
14060;SDS011;7105;43.616;1.434;2023-06-10T03:26:28;5.33;;;2.00;;
14060;SDS011;7105;43.616;1.434;2023-06-10T03:28:54;5.73;;;2.07;;
14060;SDS011;7105;43.616;1.434;2023-06-10T03:31:19;3.70;;;2.17;;
14060;SDS011;7105;43.616;1.434;2023-06-10T03:33:45;5.63;;;2.40;;
14060;SDS011;7105;43.616;1.434;2023-06-10T03:36:11;4.57;;;2.40;;
14060;SDS011;7105;43.616;1.434;2023-06-10T03:38:36;7.30;;;2.20;;
14060;SDS011;7105;43.616;1.434;2023-06-10T03:41:02;4.57;;;2.10;;
14060;SDS011;7105;43.616;1.434;2023-06-10T03:43:28;5.53;;;2.53;;
14060;SDS011;7105;43.616;1.434;2023-06-10T03:45:54;5.63;;;2.07;;
14060;SDS011;7105;43.616;1.434;2023-06-10T03:48:19;5.40;;;2.03;;
14060;SDS011;7105;43.616;1.434;2023-06-10T03:50:45;6.00;;;2.33;;
14060;SDS011;7105;43.616;1.434;2023-06-10T03:53:12;7.30;;;2.23;;
14060;SDS011;7105;43.616;1.434;2023-06-10T03:55:38;3.20;;;1.93;;
14060;SDS011;7105;43.616;1.434;2023-06-10T03:58:04;6.50;;;2.20;;
14060;SDS011;7105;43.616;1.434;2023-06-10T04:00:30;5.53;;;2.50;;
14060;SDS011;7105;43.616;1.434;2023-06-10T04:02:55;3.93;;;2.40;;
14060;SDS011;7105;43.616;1.434;2023-06-10T04:05:23;6.70;;;2.57;;
14060;SDS011;7105;43.616;1.434;2023-06-10T04:07:48;4.43;;;2.93;;
14060;SDS011;7105;43.616;1.434;2023-06-10T04:10:15;6.97;;;2.60;;
14060;SDS011;7105;43.616;1.434;2023-06-10T04:12:41;8.10;;;2.60;;
14060;SDS011;7105;43.616;1.434;2023-06-10T04:15:07;7.27;;;2.50;;
14060;SDS011;7105;43.616;1.434;2023-06-10T04:17:33;7.47;;;2.33;;
14060;SDS011;7105;43.616;1.434;2023-06-10T04:19:59;6.40;;;2.40;;
14060;SDS011;7105;43.616;1.434;2023-06-10T04:22:25;6.33;;;2.50;;
14060;SDS011;7105;43.616;1.434;2023-06-10T04:24:52;6.23;;;2.90;;
14060;SDS011;7105;43.616;1.434;2023-06-10T04:27:17;7.23;;;2.50;;
14060;SDS011;7105;43.616;1.434;2023-06-10T04:29:43;8.50;;;2.70;;
14060;SDS011;7105;43.616;1.434;2023-06-10T04:32:09;6.80;;;2.00;;
14060;SDS011;7105;43.616;1.434;2023-06-10T04:34:35;4.40;;;2.27;;
14060;SDS011;7105;43.616;1.434;2023-06-10T04:37:04;5.40;;;1.63;;
14060;SDS011;7105;43.616;1.434;2023-06-10T04:39:30;4.93;;;2.27;;
14060;SDS011;7105;43.616;1.434;2023-06-10T04:41:55;4.68;;;1.98;;
14060;SDS011;7105;43.616;1.434;2023-06-10T04:44:21;4.25;;;2.13;;
14060;SDS011;7105;43.616;1.434;2023-06-10T04:46:47;3.08;;;1.70;;
14060;SDS011;7105;43.616;1.434;2023-06-10T04:49:13;6.35;;;1.90;;
14060;SDS011;7105;43.616;1.434;2023-06-10T04:51:41;3.60;;;1.85;;
14060;SDS011;7105;43.616;1.434;2023-06-10T04:54:07;4.43;;;1.67;;
14060;SDS011;7105;43.616;1.434;2023-06-10T04:56:33;5.90;;;1.90;;
14060;SDS011;7105;43.616;1.434;2023-06-10T04:59:01;4.22;;;1.80;;
14060;SDS011;7105;43.616;1.434;2023-06-10T05:01:27;5.70;;;1.65;;
14060;SDS011;7105;43.616;1.434;2023-06-10T05:03:53;6.70;;;2.22;;
14060;SDS011;7105;43.616;1.434;2023-06-10T05:06:20;6.95;;;1.90;;
14060;SDS011;7105;43.616;1.434;2023-06-10T05:08:45;6.38;;;2.17;;
14060;SDS011;7105;43.616;1.434;2023-06-10T05:11:12;6.05;;;2.08;;
14060;SDS011;7105;43.616;1.434;2023-06-10T05:13:37;7.68;;;2.17;;
14060;SDS011;7105;43.616;1.434;2023-06-10T05:16:05;7.60;;;2.20;;
14060;SDS011;7105;43.616;1.434;2023-06-10T05:18:31;4.90;;;1.88;;
14060;SDS011;7105;43.616;1.434;2023-06-10T05:20:57;4.50;;;1.98;;
14060;SDS011;7105;43.616;1.434;2023-06-10T05:23:22;4.72;;;2.45;;
14060;SDS011;7105;43.616;1.434;2023-06-10T05:25:48;5.15;;;2.00;;
14060;SDS011;7105;43.616;1.434;2023-06-10T05:28:14;6.43;;;2.40;;
14060;SDS011;7105;43.616;1.434;2023-06-10T05:30:40;5.15;;;1.98;;
14060;SDS011;7105;43.616;1.434;2023-06-10T05:33:05;8.75;;;2.45;;
14060;SDS011;7105;43.616;1.434;2023-06-10T05:35:31;5.53;;;2.08;;
14060;SDS011;7105;43.616;1.434;2023-06-10T05:37:57;6.72;;;1.98;;
14060;SDS011;7105;43.616;1.434;2023-06-10T05:40:23;9.40;;;1.80;;
14060;SDS011;7105;43.616;1.434;2023-06-10T05:42:48;5.68;;;1.70;;
14060;SDS011;7105;43.616;1.434;2023-06-10T05:45:14;6.72;;;2.00;;
14060;SDS011;7105;43.616;1.434;2023-06-10T05:47:40;9.95;;;2.22;;
14060;SDS011;7105;43.616;1.434;2023-06-10T05:50:06;5.93;;;1.80;;
14060;SDS011;7105;43.616;1.434;2023-06-10T05:52:35;3.78;;;1.73;;
14060;SDS011;7105;43.616;1.434;2023-06-10T05:55:04;8.73;;;1.92;;
14060;SDS011;7105;43.616;1.434;2023-06-10T05:57:30;3.92;;;1.60;;
14060;SDS011;7105;43.616;1.434;2023-06-10T05:59:59;5.50;;;1.65;;
14060;SDS011;7105;43.616;1.434;2023-06-10T06:02:24;4.63;;;2.40;;
14060;SDS011;7105;43.616;1.434;2023-06-10T06:04:50;4.75;;;2.60;;
14060;SDS011;7105;43.616;1.434;2023-06-10T06:07:16;4.57;;;2.03;;
14060;SDS011;7105;43.616;1.434;2023-06-10T06:09:42;3.78;;;1.65;;
14060;SDS011;7105;43.616;1.434;2023-06-10T06:12:07;4.13;;;1.90;;
14060;SDS011;7105;43.616;1.434;2023-06-10T06:14:36;5.88;;;2.38;;
14060;SDS011;7105;43.616;1.434;2023-06-10T06:17:04;3.08;;;1.50;;
14060;SDS011;7105;43.616;1.434;2023-06-10T06:19:30;2.75;;;1.90;;
14060;SDS011;7105;43.616;1.434;2023-06-10T06:21:55;3.88;;;1.80;;
14060;SDS011;7105;43.616;1.434;2023-06-10T06:24:22;3.75;;;1.88;;
14060;SDS011;7105;43.616;1.434;2023-06-10T06:26:47;4.35;;;1.77;;
14060;SDS011;7105;43.616;1.434;2023-06-10T06:29:13;4.63;;;1.90;;
14060;SDS011;7105;43.616;1.434;2023-06-10T06:31:39;5.60;;;2.00;;
14060;SDS011;7105;43.616;1.434;2023-06-10T06:34:04;5.43;;;2.25;;
14060;SDS011;7105;43.616;1.434;2023-06-10T06:36:30;6.20;;;2.10;;
14060;SDS011;7105;43.616;1.434;2023-06-10T06:38:55;6.28;;;2.53;;
14060;SDS011;7105;43.616;1.434;2023-06-10T06:41:23;4.43;;;2.13;;
14060;SDS011;7105;43.616;1.434;2023-06-10T06:43:51;4.05;;;2.20;;
14060;SDS011;7105;43.616;1.434;2023-06-10T06:46:16;5.63;;;2.22;;
14060;SDS011;7105;43.616;1.434;2023-06-10T06:48:42;4.82;;;2.50;;
14060;SDS011;7105;43.616;1.434;2023-06-10T06:51:08;3.47;;;2.75;;
14060;SDS011;7105;43.616;1.434;2023-06-10T06:53:33;8.23;;;2.53;;
14060;SDS011;7105;43.616;1.434;2023-06-10T06:56:00;4.65;;;2.22;;
14060;SDS011;7105;43.616;1.434;2023-06-10T06:58:27;6.20;;;1.92;;
14060;SDS011;7105;43.616;1.434;2023-06-10T07:00:52;5.80;;;2.00;;
14060;SDS011;7105;43.616;1.434;2023-06-10T07:03:18;3.47;;;2.03;;
14060;SDS011;7105;43.616;1.434;2023-06-10T07:05:44;4.65;;;2.00;;
14060;SDS011;7105;43.616;1.434;2023-06-10T07:08:09;2.97;;;1.85;;
14060;SDS011;7105;43.616;1.434;2023-06-10T07:10:37;7.95;;;2.40;;
14060;SDS011;7105;43.616;1.434;2023-06-10T07:13:02;5.53;;;2.10;;
14060;SDS011;7105;43.616;1.434;2023-06-10T07:15:28;6.38;;;3.05;;
14060;SDS011;7105;43.616;1.434;2023-06-10T07:17:54;4.47;;;2.33;;
14060;SDS011;7105;43.616;1.434;2023-06-10T07:20:20;7.93;;;2.25;;
14060;SDS011;7105;43.616;1.434;2023-06-10T07:22:46;7.20;;;2.53;;
14060;SDS011;7105;43.616;1.434;2023-06-10T07:25:12;7.40;;;2.17;;
14060;SDS011;7105;43.616;1.434;2023-06-10T07:27:37;4.90;;;1.80;;
14060;SDS011;7105;43.616;1.434;2023-06-10T07:30:04;4.00;;;2.00;;
14060;SDS011;7105;43.616;1.434;2023-06-10T07:32:33;4.80;;;1.85;;
14060;SDS011;7105;43.616;1.434;2023-06-10T07:34:59;2.78;;;1.65;;
14060;SDS011;7105;43.616;1.434;2023-06-10T07:37:24;2.95;;;1.38;;
14060;SDS011;7105;43.616;1.434;2023-06-10T07:39:50;3.72;;;1.77;;
14060;SDS011;7105;43.616;1.434;2023-06-10T07:42:16;2.85;;;1.65;;
14060;SDS011;7105;43.616;1.434;2023-06-10T07:44:42;3.42;;;1.70;;
14060;SDS011;7105;43.616;1.434;2023-06-10T07:47:07;5.63;;;1.30;;
14060;SDS011;7105;43.616;1.434;2023-06-10T07:49:33;3.10;;;1.45;;
14060;SDS011;7105;43.616;1.434;2023-06-10T07:51:58;4.38;;;1.52;;
14060;SDS011;7105;43.616;1.434;2023-06-10T07:54:24;2.42;;;1.83;;
14060;SDS011;7105;43.616;1.434;2023-06-10T07:56:50;4.47;;;1.40;;
14060;SDS011;7105;43.616;1.434;2023-06-10T07:59:18;3.15;;;1.73;;
14060;SDS011;7105;43.616;1.434;2023-06-10T08:01:43;2.85;;;1.40;;
14060;SDS011;7105;43.616;1.434;2023-06-10T08:04:09;4.47;;;1.50;;
14060;SDS011;7105;43.616;1.434;2023-06-10T08:06:35;4.18;;;1.48;;
14060;SDS011;7105;43.616;1.434;2023-06-10T08:09:02;3.95;;;1.67;;
14060;SDS011;7105;43.616;1.434;2023-06-10T08:11:28;5.25;;;1.65;;
14060;SDS011;7105;43.616;1.434;2023-06-10T08:13:54;3.80;;;1.60;;
14060;SDS011;7105;43.616;1.434;2023-06-10T08:16:20;4.50;;;1.70;;
14060;SDS011;7105;43.616;1.434;2023-06-10T08:18:46;4.82;;;1.90;;
14060;SDS011;7105;43.616;1.434;2023-06-10T08:21:12;2.05;;;1.60;;
14060;SDS011;7105;43.616;1.434;2023-06-10T08:23:38;4.68;;;1.40;;
14060;SDS011;7105;43.616;1.434;2023-06-10T08:26:04;2.80;;;1.48;;
14060;SDS011;7105;43.616;1.434;2023-06-10T08:28:29;7.82;;;1.75;;
14060;SDS011;7105;43.616;1.434;2023-06-10T08:30:55;2.03;;;1.35;;
14060;SDS011;7105;43.616;1.434;2023-06-10T08:33:21;2.15;;;1.27;;
14060;SDS011;7105;43.616;1.434;2023-06-10T08:35:46;4.55;;;1.52;;
14060;SDS011;7105;43.616;1.434;2023-06-10T08:38:12;2.92;;;1.48;;
14060;SDS011;7105;43.616;1.434;2023-06-10T08:40:38;2.28;;;1.40;;
14060;SDS011;7105;43.616;1.434;2023-06-10T08:45:34;1.63;;;1.50;;
14060;SDS011;7105;43.616;1.434;2023-06-10T08:48:05;3.30;;;1.30;;
14060;SDS011;7105;43.616;1.434;2023-06-10T08:50:34;4.05;;;1.50;;
14060;SDS011;7105;43.616;1.434;2023-06-10T08:53:01;2.80;;;1.48;;
14060;SDS011;7105;43.616;1.434;2023-06-10T08:55:33;4.03;;;1.60;;
14060;SDS011;7105;43.616;1.434;2023-06-10T08:58:01;4.70;;;1.70;;
14060;SDS011;7105;43.616;1.434;2023-06-10T09:00:28;3.38;;;1.60;;
14060;SDS011;7105;43.616;1.434;2023-06-10T09:02:57;2.45;;;1.58;;
14060;SDS011;7105;43.616;1.434;2023-06-10T09:05:23;2.65;;;1.50;;
14060;SDS011;7105;43.616;1.434;2023-06-10T09:07:49;3.90;;;1.60;;
14060;SDS011;7105;43.616;1.434;2023-06-10T09:10:17;1.80;;;1.52;;
14060;SDS011;7105;43.616;1.434;2023-06-10T09:12:43;2.78;;;1.50;;
14060;SDS011;7105;43.616;1.434;2023-06-10T09:15:09;3.95;;;1.55;;
14060;SDS011;7105;43.616;1.434;2023-06-10T09:17:36;3.05;;;1.65;;
14060;SDS011;7105;43.616;1.434;2023-06-10T09:20:03;3.00;;;2.00;;
14060;SDS011;7105;43.616;1.434;2023-06-10T09:22:29;5.30;;;1.70;;
14060;SDS011;7105;43.616;1.434;2023-06-10T09:25:11;4.82;;;1.60;;
14060;SDS011;7105;43.616;1.434;2023-06-10T09:27:44;3.20;;;1.80;;
14060;SDS011;7105;43.616;1.434;2023-06-10T09:30:28;2.85;;;2.00;;
14060;SDS011;7105;43.616;1.434;2023-06-10T09:32:54;2.75;;;1.67;;
14060;SDS011;7105;43.616;1.434;2023-06-10T09:35:22;2.40;;;1.65;;
14060;SDS011;7105;43.616;1.434;2023-06-10T09:37:58;3.10;;;1.70;;
14060;SDS011;7105;43.616;1.434;2023-06-10T09:40:25;1.58;;;1.42;;
14060;SDS011;7105;43.616;1.434;2023-06-10T09:42:56;4.18;;;1.60;;
14060;SDS011;7105;43.616;1.434;2023-06-10T09:45:27;4.40;;;1.90;;
14060;SDS011;7105;43.616;1.434;2023-06-10T09:47:55;2.75;;;1.70;;
14060;SDS011;7105;43.616;1.434;2023-06-10T09:50:21;4.45;;;2.17;;
14060;SDS011;7105;43.616;1.434;2023-06-10T09:52:47;3.25;;;1.88;;
14060;SDS011;7105;43.616;1.434;2023-06-10T09:55:13;3.35;;;1.92;;
14060;SDS011;7105;43.616;1.434;2023-06-10T09:57:39;3.70;;;1.60;;
14060;SDS011;7105;43.616;1.434;2023-06-10T10:00:07;7.13;;;1.90;;
14060;SDS011;7105;43.616;1.434;2023-06-10T10:02:44;2.60;;;1.70;;
14060;SDS011;7105;43.616;1.434;2023-06-10T10:05:12;2.97;;;1.85;;
14060;SDS011;7105;43.616;1.434;2023-06-10T10:07:39;3.42;;;1.77;;
14060;SDS011;7105;43.616;1.434;2023-06-10T10:10:05;1.58;;;1.45;;
14060;SDS011;7105;43.616;1.434;2023-06-10T10:12:33;3.40;;;1.73;;
14060;SDS011;7105;43.616;1.434;2023-06-10T10:15:00;2.35;;;1.67;;
14060;SDS011;7105;43.616;1.434;2023-06-10T10:17:27;2.47;;;1.70;;
14060;SDS011;7105;43.616;1.434;2023-06-10T10:19:57;2.35;;;1.60;;
14060;SDS011;7105;43.616;1.434;2023-06-10T10:22:26;1.83;;;1.55;;
14060;SDS011;7105;43.616;1.434;2023-06-10T10:24:59;1.92;;;1.60;;
14060;SDS011;7105;43.616;1.434;2023-06-10T10:27:38;3.10;;;1.80;;
14060;SDS011;7105;43.616;1.434;2023-06-10T10:30:21;2.85;;;1.60;;
14060;SDS011;7105;43.616;1.434;2023-06-10T10:33:31;2.53;;;1.50;;
14060;SDS011;7105;43.616;1.434;2023-06-10T10:35:55;3.15;;;1.50;;
14060;SDS011;7105;43.616;1.434;2023-06-10T10:38:22;2.95;;;1.90;;
14060;SDS011;7105;43.616;1.434;2023-06-10T10:40:49;3.30;;;1.60;;
14060;SDS011;7105;43.616;1.434;2023-06-10T10:43:16;2.10;;;1.48;;
14060;SDS011;7105;43.616;1.434;2023-06-10T10:45:44;2.05;;;1.35;;
14060;SDS011;7105;43.616;1.434;2023-06-10T10:48:35;2.97;;;1.52;;
14060;SDS011;7105;43.616;1.434;2023-06-10T10:51:03;1.75;;;1.50;;
14060;SDS011;7105;43.616;1.434;2023-06-10T10:53:29;3.28;;;1.70;;
14060;SDS011;7105;43.616;1.434;2023-06-10T10:55:59;2.90;;;1.40;;
14060;SDS011;7105;43.616;1.434;2023-06-10T10:58:25;3.17;;;1.52;;
14060;SDS011;7105;43.616;1.434;2023-06-10T11:00:51;3.33;;;1.60;;
14060;SDS011;7105;43.616;1.434;2023-06-10T11:03:17;3.30;;;1.50;;
14060;SDS011;7105;43.616;1.434;2023-06-10T11:05:43;2.63;;;1.67;;
14060;SDS011;7105;43.616;1.434;2023-06-10T11:08:13;2.40;;;1.60;;
14060;SDS011;7105;43.616;1.434;2023-06-10T11:10:40;1.95;;;1.60;;
14060;SDS011;7105;43.616;1.434;2023-06-10T11:13:15;2.30;;;1.23;;
14060;SDS011;7105;43.616;1.434;2023-06-10T11:15:44;1.92;;;1.40;;
14060;SDS011;7105;43.616;1.434;2023-06-10T11:18:28;3.55;;;1.30;;
14060;SDS011;7105;43.616;1.434;2023-06-10T11:28:36;2.00;;;1.33;;
14060;SDS011;7105;43.616;1.434;2023-06-10T11:31:05;3.33;;;1.50;;
14060;SDS011;7105;43.616;1.434;2023-06-10T11:33:32;3.67;;;1.95;;
14060;SDS011;7105;43.616;1.434;2023-06-10T11:35:58;1.50;;;1.38;;
14060;SDS011;7105;43.616;1.434;2023-06-10T11:38:24;2.45;;;1.25;;
14060;SDS011;7105;43.616;1.434;2023-06-10T11:40:50;1.70;;;1.15;;
14060;SDS011;7105;43.616;1.434;2023-06-10T11:43:17;2.00;;;1.10;;
14060;SDS011;7105;43.616;1.434;2023-06-10T11:45:43;2.20;;;1.50;;
14060;SDS011;7105;43.616;1.434;2023-06-10T11:48:09;1.40;;;1.15;;
14060;SDS011;7105;43.616;1.434;2023-06-10T11:50:35;1.95;;;1.00;;
14060;SDS011;7105;43.616;1.434;2023-06-10T11:53:02;2.25;;;1.23;;
14060;SDS011;7105;43.616;1.434;2023-06-10T11:55:47;1.52;;;1.05;;
14060;SDS011;7105;43.616;1.434;2023-06-10T12:00:50;1.45;;;1.13;;
14060;SDS011;7105;43.616;1.434;2023-06-10T12:03:18;1.58;;;1.15;;
14060;SDS011;7105;43.616;1.434;2023-06-10T12:05:55;1.17;;;0.90;;
14060;SDS011;7105;43.616;1.434;2023-06-10T12:08:23;2.83;;;1.10;;
14060;SDS011;7105;43.616;1.434;2023-06-10T12:10:52;2.03;;;0.90;;
14060;SDS011;7105;43.616;1.434;2023-06-10T12:13:18;2.28;;;1.17;;
14060;SDS011;7105;43.616;1.434;2023-06-10T12:15:44;2.30;;;1.25;;
14060;SDS011;7105;43.616;1.434;2023-06-10T12:20:44;2.65;;;1.42;;
14060;SDS011;7105;43.616;1.434;2023-06-10T12:23:10;1.75;;;1.27;;
14060;SDS011;7105;43.616;1.434;2023-06-10T12:25:54;3.03;;;1.40;;
14060;SDS011;7105;43.616;1.434;2023-06-10T12:28:24;1.30;;;1.20;;
14060;SDS011;7105;43.616;1.434;2023-06-10T12:30:51;2.22;;;1.10;;
14060;SDS011;7105;43.616;1.434;2023-06-10T12:33:31;2.10;;;1.40;;
14060;SDS011;7105;43.616;1.434;2023-06-10T12:36:00;1.95;;;1.20;;
14060;SDS011;7105;43.616;1.434;2023-06-10T12:38:26;2.70;;;1.15;;
14060;SDS011;7105;43.616;1.434;2023-06-10T12:40:52;1.58;;;1.00;;
14060;SDS011;7105;43.616;1.434;2023-06-10T12:43:24;1.05;;;0.95;;
14060;SDS011;7105;43.616;1.434;2023-06-10T12:45:51;1.70;;;1.08;;
14060;SDS011;7105;43.616;1.434;2023-06-10T12:48:18;1.80;;;1.30;;
14060;SDS011;7105;43.616;1.434;2023-06-10T12:50:49;2.83;;;1.40;;
14060;SDS011;7105;43.616;1.434;2023-06-10T12:53:16;1.48;;;1.20;;
14060;SDS011;7105;43.616;1.434;2023-06-10T12:55:42;1.70;;;1.60;;
14060;SDS011;7105;43.616;1.434;2023-06-10T12:58:10;2.78;;;1.10;;
14060;SDS011;7105;43.616;1.434;2023-06-10T13:00:36;1.20;;;1.10;;
14060;SDS011;7105;43.616;1.434;2023-06-10T13:03:02;2.58;;;1.40;;
14060;SDS011;7105;43.616;1.434;2023-06-10T13:05:30;2.70;;;1.40;;
14060;SDS011;7105;43.616;1.434;2023-06-10T13:07:57;1.85;;;1.52;;
14060;SDS011;7105;43.616;1.434;2023-06-10T13:10:23;2.35;;;1.52;;
14060;SDS011;7105;43.616;1.434;2023-06-10T13:12:50;2.75;;;1.27;;
14060;SDS011;7105;43.616;1.434;2023-06-10T13:15:16;2.70;;;1.17;;
14060;SDS011;7105;43.616;1.434;2023-06-10T13:17:43;2.17;;;1.40;;
14060;SDS011;7105;43.616;1.434;2023-06-10T13:20:11;3.25;;;1.30;;
14060;SDS011;7105;43.616;1.434;2023-06-10T13:22:37;2.60;;;1.23;;
14060;SDS011;7105;43.616;1.434;2023-06-10T13:25:03;2.60;;;1.23;;
14060;SDS011;7105;43.616;1.434;2023-06-10T13:27:35;1.88;;;1.33;;
14060;SDS011;7105;43.616;1.434;2023-06-10T13:30:04;2.05;;;1.40;;
14060;SDS011;7105;43.616;1.434;2023-06-10T13:32:31;1.45;;;1.20;;
14060;SDS011;7105;43.616;1.434;2023-06-10T13:34:59;1.85;;;1.75;;
14060;SDS011;7105;43.616;1.434;2023-06-10T13:37:25;1.80;;;1.25;;
14060;SDS011;7105;43.616;1.434;2023-06-10T13:39:51;1.98;;;1.20;;
14060;SDS011;7105;43.616;1.434;2023-06-10T13:42:20;1.33;;;1.23;;
14060;SDS011;7105;43.616;1.434;2023-06-10T13:44:46;2.15;;;1.95;;
14060;SDS011;7105;43.616;1.434;2023-06-10T13:47:13;1.42;;;1.27;;
14060;SDS011;7105;43.616;1.434;2023-06-10T13:49:39;1.23;;;1.13;;
14060;SDS011;7105;43.616;1.434;2023-06-10T13:52:05;2.42;;;1.10;;
14060;SDS011;7105;43.616;1.434;2023-06-10T13:54:34;1.15;;;1.00;;
14060;SDS011;7105;43.616;1.434;2023-06-10T13:57:03;1.10;;;1.00;;
14060;SDS011;7105;43.616;1.434;2023-06-10T13:59:29;2.35;;;1.10;;
14060;SDS011;7105;43.616;1.434;2023-06-10T14:01:54;1.20;;;1.10;;
14060;SDS011;7105;43.616;1.434;2023-06-10T14:04:21;2.50;;;1.33;;
14060;SDS011;7105;43.616;1.434;2023-06-10T14:06:47;2.10;;;1.17;;
14060;SDS011;7105;43.616;1.434;2023-06-10T14:09:13;1.10;;;0.98;;
14060;SDS011;7105;43.616;1.434;2023-06-10T14:11:39;2.17;;;1.23;;
14060;SDS011;7105;43.616;1.434;2023-06-10T14:14:05;1.25;;;0.93;;
14060;SDS011;7105;43.616;1.434;2023-06-10T14:16:31;2.05;;;1.15;;
14060;SDS011;7105;43.616;1.434;2023-06-10T14:18:57;1.23;;;0.90;;
14060;SDS011;7105;43.616;1.434;2023-06-10T14:21:22;1.15;;;1.00;;
14060;SDS011;7105;43.616;1.434;2023-06-10T14:23:48;1.50;;;0.90;;
14060;SDS011;7105;43.616;1.434;2023-06-10T14:26:15;2.05;;;1.15;;
14060;SDS011;7105;43.616;1.434;2023-06-10T14:28:40;2.38;;;1.17;;
14060;SDS011;7105;43.616;1.434;2023-06-10T14:31:06;1.23;;;0.90;;
14060;SDS011;7105;43.616;1.434;2023-06-10T14:33:32;1.63;;;1.00;;
14060;SDS011;7105;43.616;1.434;2023-06-10T14:35:58;2.05;;;1.10;;
14060;SDS011;7105;43.616;1.434;2023-06-10T14:38:24;1.98;;;1.00;;
14060;SDS011;7105;43.616;1.434;2023-06-10T14:40:49;1.75;;;1.10;;
14060;SDS011;7105;43.616;1.434;2023-06-10T14:43:15;2.15;;;1.40;;
14060;SDS011;7105;43.616;1.434;2023-06-10T14:45:41;1.48;;;1.08;;
14060;SDS011;7105;43.616;1.434;2023-06-10T14:48:07;1.60;;;0.90;;
14060;SDS011;7105;43.616;1.434;2023-06-10T14:50:34;1.08;;;0.80;;
14060;SDS011;7105;43.616;1.434;2023-06-10T14:53:00;1.65;;;1.30;;
14060;SDS011;7105;43.616;1.434;2023-06-10T14:55:26;1.15;;;1.00;;
14060;SDS011;7105;43.616;1.434;2023-06-10T14:57:51;0.90;;;0.90;;
14060;SDS011;7105;43.616;1.434;2023-06-10T15:00:17;1.05;;;0.90;;
14060;SDS011;7105;43.616;1.434;2023-06-10T15:02:48;2.47;;;1.27;;
14060;SDS011;7105;43.616;1.434;2023-06-10T15:05:14;1.33;;;1.00;;
14060;SDS011;7105;43.616;1.434;2023-06-10T15:07:40;1.73;;;1.00;;
14060;SDS011;7105;43.616;1.434;2023-06-10T15:10:07;1.65;;;1.00;;
14060;SDS011;7105;43.616;1.434;2023-06-10T15:12:33;1.20;;;1.00;;
14060;SDS011;7105;43.616;1.434;2023-06-10T15:14:59;1.55;;;1.10;;
14060;SDS011;7105;43.616;1.434;2023-06-10T15:17:25;1.38;;;1.10;;
14060;SDS011;7105;43.616;1.434;2023-06-10T15:19:50;1.13;;;1.02;;